createdAt,value
2023-01-13T00:00:48.060Z,9.20
2023-01-13T00:03:14.574Z,9.17
2023-01-13T00:05:41.116Z,9.20
2023-01-13T00:08:07.607Z,9.23
2023-01-13T00:10:35.090Z,9.28
2023-01-13T00:13:04.018Z,9.34
2023-01-13T00:15:31.364Z,9.42
2023-01-13T00:17:57.864Z,9.46
2023-01-13T00:20:24.413Z,9.48
2023-01-13T00:22:50.925Z,9.50
2023-01-13T00:25:17.605Z,9.49
2023-01-13T00:27:44.130Z,9.49
2023-01-13T00:30:11.280Z,9.52
2023-01-13T00:32:38.263Z,9.52
2023-01-13T00:35:05.270Z,9.62
2023-01-13T00:37:31.780Z,9.62
2023-01-13T00:39:58.272Z,9.60
2023-01-13T00:42:43.204Z,9.65
2023-01-13T00:45:10.087Z,9.73
2023-01-13T00:47:36.621Z,9.66
2023-01-13T00:50:03.251Z,9.70
2023-01-13T00:52:32.447Z,9.70
2023-01-13T00:54:59.006Z,9.75
2023-01-13T00:57:25.508Z,9.76
2023-01-13T00:59:52.004Z,9.74
2023-01-13T01:02:18.605Z,9.68
2023-01-13T01:04:45.196Z,9.69
2023-01-13T01:07:11.704Z,9.66
2023-01-13T01:09:39.525Z,9.62
2023-01-13T01:12:06.193Z,9.58
2023-01-13T01:14:32.759Z,9.54
2023-01-13T01:16:59.344Z,9.62
2023-01-13T01:19:25.856Z,9.57
2023-01-13T01:21:52.431Z,9.61
2023-01-13T01:24:19.037Z,9.67
2023-01-13T01:26:45.636Z,9.66
2023-01-13T01:29:15.203Z,9.68
2023-01-13T01:31:42.090Z,9.56
2023-01-13T01:34:08.844Z,9.57
2023-01-13T01:36:36.648Z,9.51
2023-01-13T01:39:04.129Z,9.57
2023-01-13T01:41:32.553Z,9.57
2023-01-13T01:44:01.658Z,9.54
2023-01-13T01:46:43.750Z,9.51
2023-01-13T01:49:25.164Z,9.50
2023-01-13T01:52:02.514Z,9.51
2023-01-13T01:54:37.576Z,9.44
2023-01-13T01:57:04.759Z,9.46
2023-01-13T01:59:35.047Z,9.47
2023-01-13T02:02:02.473Z,9.41
2023-01-13T02:04:39.939Z,9.38
2023-01-13T02:07:06.825Z,9.34
2023-01-13T02:09:35.115Z,9.31
2023-01-13T02:12:20.001Z,9.36
2023-01-13T02:14:46.973Z,9.29
2023-01-13T02:17:36.892Z,9.29
2023-01-13T02:20:45.792Z,9.29
2023-01-13T02:23:57.530Z,9.20
2023-01-13T02:27:06.167Z,9.14
2023-01-13T02:30:19.853Z,9.07
2023-01-13T02:33:13.873Z,9.10
2023-01-13T02:35:54.031Z,9.13
2023-01-13T02:38:28.887Z,9.21
2023-01-13T02:41:26.022Z,9.22
2023-01-13T02:44:07.142Z,9.19
2023-01-13T02:46:39.489Z,9.16
2023-01-13T02:49:10.829Z,9.23
2023-01-13T02:51:40.707Z,9.25
2023-01-13T02:54:15.535Z,9.15
2023-01-13T02:56:47.320Z,9.14
2023-01-13T02:59:14.246Z,9.08
2023-01-13T03:01:42.411Z,9.06
2023-01-13T03:04:14.127Z,9.10
2023-01-13T03:07:01.586Z,9.04
2023-01-13T03:09:36.483Z,9.08
2023-01-13T03:12:38.036Z,8.98
2023-01-13T03:15:17.142Z,8.92
2023-01-13T03:18:04.272Z,8.77
2023-01-13T03:20:37.319Z,8.73
2023-01-13T03:23:28.501Z,8.76
2023-01-13T03:26:29.049Z,8.68
2023-01-13T03:29:13.622Z,8.61
2023-01-13T03:31:46.693Z,8.55
2023-01-13T03:34:17.422Z,8.50
2023-01-13T03:36:47.104Z,8.53
2023-01-13T03:39:19.820Z,8.49
2023-01-13T03:41:53.224Z,8.49
2023-01-13T03:44:32.790Z,8.48
2023-01-13T03:47:22.164Z,8.48
2023-01-13T03:50:11.264Z,8.49
2023-01-13T03:52:43.556Z,8.54
2023-01-13T03:55:18.568Z,8.52
2023-01-13T03:57:52.644Z,8.46
2023-01-13T04:00:21.262Z,8.40
2023-01-13T04:02:56.528Z,8.36
2023-01-13T04:05:23.189Z,8.38
2023-01-13T04:08:20.795Z,8.36
2023-01-13T04:10:59.428Z,8.28
2023-01-13T04:13:30.130Z,8.21
2023-01-13T04:15:56.653Z,8.06
2023-01-13T04:18:30.707Z,8.06
2023-01-13T04:21:00.421Z,8.06
2023-01-13T04:23:28.037Z,8.10
2023-01-13T04:25:55.301Z,8.09
2023-01-13T04:28:22.626Z,8.09
2023-01-13T04:30:49.497Z,8.06
2023-01-13T04:33:17.370Z,8.10
2023-01-13T04:35:44.572Z,8.07
2023-01-13T04:38:16.420Z,8.01
2023-01-13T04:40:43.112Z,8.07
2023-01-13T04:43:10.004Z,8.14
2023-01-13T04:45:36.738Z,8.16
2023-01-13T04:48:03.503Z,8.16
2023-01-13T04:50:29.890Z,8.18
2023-01-13T04:52:56.517Z,8.19
2023-01-13T04:55:24.140Z,8.20
2023-01-13T04:57:50.559Z,8.23
2023-01-13T05:00:19.563Z,8.23
2023-01-13T05:02:46.083Z,8.26
2023-01-13T05:05:12.452Z,8.20
2023-01-13T05:07:38.783Z,8.13
2023-01-13T05:10:05.656Z,8.13
2023-01-13T05:12:50.849Z,8.20
2023-01-13T05:15:36.191Z,8.19
2023-01-13T05:18:03.631Z,8.23
2023-01-13T05:20:29.982Z,8.20
2023-01-13T05:23:14.869Z,8.19
2023-01-13T05:25:44.375Z,8.17
2023-01-13T05:28:11.590Z,8.22
2023-01-13T05:30:43.554Z,8.27
2023-01-13T05:33:16.072Z,8.23
2023-01-13T05:35:44.193Z,8.26
2023-01-13T05:38:11.948Z,8.34
2023-01-13T05:40:59.551Z,8.30
2023-01-13T05:43:26.547Z,8.27
2023-01-13T05:46:09.682Z,8.29
2023-01-13T05:48:38.720Z,8.27
2023-01-13T05:51:07.521Z,8.25
2023-01-13T05:53:34.374Z,8.29
2023-01-13T05:56:04.469Z,8.31
2023-01-13T05:58:31.177Z,8.28
2023-01-13T06:01:06.020Z,8.21
2023-01-13T06:03:32.906Z,8.24
2023-01-13T06:06:01.304Z,8.14
2023-01-13T06:08:28.101Z,8.06
2023-01-13T06:10:54.473Z,8.13
2023-01-13T06:13:20.862Z,8.12
2023-01-13T06:15:47.208Z,8.13
2023-01-13T06:18:13.740Z,8.17
2023-01-13T06:20:40.104Z,8.18
2023-01-13T06:23:09.625Z,8.20
2023-01-13T06:25:44.393Z,8.16
2023-01-13T06:28:10.735Z,8.17
2023-01-13T06:30:49.113Z,8.18
2023-01-13T06:33:20.503Z,8.11
2023-01-13T06:35:52.611Z,8.06
2023-01-13T06:38:21.493Z,8.04
2023-01-13T06:40:48.254Z,7.95
2023-01-13T06:43:16.387Z,7.94
2023-01-13T06:45:52.330Z,7.92
2023-01-13T06:48:23.378Z,7.91
2023-01-13T06:50:49.817Z,7.87
2023-01-13T06:53:16.190Z,7.81
2023-01-13T06:55:42.493Z,7.75
2023-01-13T06:58:08.866Z,7.78
2023-01-13T07:00:37.074Z,7.77
2023-01-13T07:03:08.622Z,7.73
2023-01-13T07:05:34.998Z,7.63
2023-01-13T07:08:01.454Z,7.60
2023-01-13T07:10:28.270Z,7.55
2023-01-13T07:13:13.222Z,7.50
2023-01-13T07:15:39.575Z,7.59
2023-01-13T07:18:06.006Z,7.58
2023-01-13T07:20:32.426Z,7.55
2023-01-13T07:22:58.916Z,7.57
2023-01-13T07:25:25.894Z,7.54
2023-01-13T07:27:52.323Z,7.51
2023-01-13T07:30:18.847Z,7.53
2023-01-13T07:32:45.282Z,7.57
2023-01-13T07:35:11.680Z,7.59
2023-01-13T07:37:39.367Z,7.61
2023-01-13T07:40:06.704Z,7.72
2023-01-13T07:42:51.471Z,7.79
2023-01-13T07:45:17.807Z,7.86
2023-01-13T07:47:44.143Z,7.94
2023-01-13T07:50:10.918Z,7.92
2023-01-13T07:52:37.245Z,7.98
2023-01-13T07:55:03.742Z,7.99
2023-01-13T07:57:30.085Z,7.98
2023-01-13T07:59:56.432Z,8.02
2023-01-13T08:02:23.150Z,8.00
2023-01-13T08:04:49.656Z,8.02
2023-01-13T08:07:16.050Z,8.02
2023-01-13T08:09:42.355Z,7.99
2023-01-13T08:12:27.283Z,7.99
2023-01-13T08:14:54.013Z,7.97
2023-01-13T08:17:20.681Z,7.98
2023-01-13T08:19:47.351Z,7.97
2023-01-13T08:22:13.687Z,7.98
2023-01-13T08:24:40.052Z,8.02
2023-01-13T08:27:06.388Z,8.10
2023-01-13T08:29:32.714Z,8.10
2023-01-13T08:31:59.227Z,8.00
2023-01-13T08:34:25.721Z,8.03
2023-01-13T08:36:52.093Z,8.00
2023-01-13T08:39:18.592Z,8.00
2023-01-13T08:41:58.189Z,8.08
2023-01-13T08:44:27.568Z,8.06
2023-01-13T08:46:54.852Z,8.07
2023-01-13T08:49:21.810Z,8.13
2023-01-13T08:51:48.582Z,8.11
2023-01-13T08:54:18.052Z,8.13
2023-01-13T08:56:45.680Z,8.16
2023-01-13T08:59:17.079Z,8.24
2023-01-13T09:01:44.406Z,8.24
2023-01-13T09:04:19.430Z,8.23
2023-01-13T09:06:47.392Z,8.20
2023-01-13T09:09:13.957Z,8.13
2023-01-13T09:12:01.694Z,8.20
2023-01-13T09:14:31.227Z,8.26
2023-01-13T09:16:58.601Z,8.31
2023-01-13T09:19:25.947Z,8.34
2023-01-13T09:21:52.636Z,8.34
2023-01-13T09:24:19.659Z,8.35
2023-01-13T09:26:46.100Z,8.35
2023-01-13T09:29:12.528Z,8.39
2023-01-13T09:31:38.934Z,8.39
2023-01-13T09:34:25.328Z,8.41
2023-01-13T09:36:51.682Z,8.41
2023-01-13T09:39:18.438Z,8.38
2023-01-13T09:42:10.739Z,8.32
2023-01-13T09:44:48.025Z,8.35
2023-01-13T09:47:30.513Z,8.33
2023-01-13T09:50:15.470Z,8.40
2023-01-13T09:52:43.056Z,8.41
2023-01-13T09:55:15.510Z,8.44
2023-01-13T09:57:42.044Z,8.42
2023-01-13T10:00:25.775Z,8.43
2023-01-13T10:03:19.286Z,8.36
2023-01-13T10:05:57.465Z,8.42
2023-01-13T10:08:32.518Z,8.54
2023-01-13T10:11:34.206Z,8.55
2023-01-13T10:14:15.615Z,8.61
2023-01-13T10:17:07.551Z,8.60
2023-01-13T10:19:55.789Z,8.68
2023-01-13T10:22:30.946Z,8.59
2023-01-13T10:25:03.453Z,8.59
2023-01-13T10:27:37.261Z,8.63
2023-01-13T10:30:17.815Z,8.77
2023-01-13T10:32:50.179Z,8.85
2023-01-13T10:35:16.688Z,8.84
2023-01-13T10:37:56.731Z,8.91
2023-01-13T10:40:23.158Z,9.08
2023-01-13T10:43:05.502Z,9.15
2023-01-13T10:45:31.843Z,9.15
2023-01-13T10:48:13.753Z,9.11
2023-01-13T10:50:40.583Z,9.16
2023-01-13T10:53:24.186Z,9.15
2023-01-13T10:56:04.271Z,9.14
2023-01-13T10:58:30.789Z,9.15
2023-01-13T11:01:03.046Z,9.16
2023-01-13T11:03:36.912Z,9.08
2023-01-13T11:06:03.603Z,9.05
2023-01-13T11:08:42.043Z,8.99
2023-01-13T11:11:26.930Z,8.89
2023-01-13T11:14:15.343Z,8.88
2023-01-13T11:16:53.089Z,8.83
2023-01-13T11:19:24.268Z,8.80
2023-01-13T11:22:01.471Z,8.81
2023-01-13T11:24:53.011Z,8.83
2023-01-13T11:27:52.522Z,8.86
2023-01-13T11:30:21.808Z,8.84
2023-01-13T11:33:09.890Z,8.88
2023-01-13T11:35:43.545Z,8.95
2023-01-13T11:38:35.961Z,9.02
2023-01-13T11:41:14.069Z,9.07
2023-01-13T11:43:51.575Z,9.14
2023-01-13T11:46:28.106Z,9.00
2023-01-13T11:48:56.629Z,9.06
2023-01-13T11:51:34.819Z,8.89
2023-01-13T11:54:38.777Z,8.86
2023-01-13T11:57:36.573Z,8.72
2023-01-13T12:01:07.748Z,8.60
2023-01-13T12:03:50.060Z,8.60
2023-01-13T12:07:07.294Z,8.57
2023-01-13T12:09:45.515Z,8.51
2023-01-13T12:12:27.749Z,8.49
2023-01-13T12:15:12.547Z,8.32
2023-01-13T12:18:19.143Z,8.35
2023-01-13T12:20:59.979Z,8.14
2023-01-13T12:23:34.376Z,7.99
2023-01-13T12:26:11.457Z,7.88
2023-01-13T12:28:44.596Z,7.93
2023-01-13T12:31:12.502Z,7.92
2023-01-13T12:34:00.651Z,8.01
2023-01-13T12:37:02.665Z,7.99
2023-01-13T12:39:43.697Z,8.05
2023-01-13T12:42:51.223Z,8.10
2023-01-13T12:45:26.950Z,8.13
2023-01-13T12:47:53.923Z,8.16
2023-01-13T12:50:26.176Z,8.21
2023-01-13T12:52:57.417Z,8.40
2023-01-13T12:55:36.147Z,8.52
2023-01-13T12:58:05.296Z,8.59
2023-01-13T13:00:52.032Z,8.74
2023-01-13T13:03:32.112Z,8.67
2023-01-13T13:06:20.454Z,8.85
2023-01-13T13:09:28.867Z,8.79
2023-01-13T13:11:57.896Z,8.70
2023-01-13T13:14:39.310Z,8.69
2023-01-13T13:17:28.595Z,8.64
2023-01-13T13:19:57.398Z,8.60
2023-01-13T13:22:26.741Z,8.61
2023-01-13T13:24:56.104Z,8.61
2023-01-13T13:27:28.338Z,8.67
2023-01-13T13:30:00.048Z,8.61
2023-01-13T13:33:00.146Z,8.50
2023-01-13T13:35:51.651Z,8.43
2023-01-13T13:39:08.469Z,8.50
2023-01-13T13:41:54.665Z,8.50
2023-01-13T13:44:58.676Z,8.50
2023-01-13T13:47:25.041Z,8.32
2023-01-13T13:49:54.324Z,8.25
2023-01-13T13:52:22.489Z,8.13
2023-01-13T13:54:51.843Z,8.05
2023-01-13T13:57:21.437Z,7.96
2023-01-13T13:59:57.403Z,7.77
2023-01-13T14:02:29.835Z,7.71
2023-01-13T14:05:23.101Z,7.71
2023-01-13T14:07:52.487Z,7.66
2023-01-13T14:10:27.942Z,7.63
2023-01-13T14:12:54.325Z,7.57
2023-01-13T14:15:35.520Z,7.50
2023-01-13T14:18:05.811Z,7.45
2023-01-13T14:20:34.361Z,7.36
2023-01-13T14:23:01.601Z,7.35
2023-01-13T14:25:32.320Z,7.36
2023-01-13T14:28:17.133Z,7.42
2023-01-13T14:30:44.242Z,7.41
2023-01-13T14:33:18.219Z,7.43
2023-01-13T14:36:23.629Z,7.39
2023-01-13T14:39:05.347Z,7.36
2023-01-13T14:41:43.846Z,7.36
2023-01-13T14:44:23.493Z,7.24
2023-01-13T14:46:50.734Z,7.23
2023-01-13T14:49:38.920Z,7.18
2023-01-13T14:52:13.349Z,7.13
2023-01-13T14:54:45.256Z,7.09
2023-01-13T14:57:27.339Z,7.10
2023-01-13T15:00:23.400Z,7.07
2023-01-13T15:02:53.225Z,7.08
2023-01-13T15:05:19.574Z,7.14
2023-01-13T15:08:12.169Z,7.16
2023-01-13T15:10:51.198Z,7.15
2023-01-13T15:13:29.431Z,7.18
2023-01-13T15:15:57.541Z,7.15
2023-01-13T15:18:23.990Z,7.10
2023-01-13T15:20:52.913Z,7.08
2023-01-13T15:23:20.104Z,7.04
2023-01-13T15:25:47.627Z,7.06
2023-01-13T15:28:16.194Z,7.07
2023-01-13T15:30:42.528Z,7.10
2023-01-13T15:33:11.540Z,7.14
2023-01-13T15:35:41.142Z,7.13
2023-01-13T15:38:16.655Z,7.24
2023-01-13T15:40:43.883Z,7.26
2023-01-13T15:43:32.963Z,7.31
2023-01-13T15:46:37.858Z,7.32
2023-01-13T15:49:34.719Z,7.34
2023-01-13T15:52:03.120Z,7.38
2023-01-13T15:54:29.789Z,7.49
2023-01-13T15:56:56.509Z,7.50
2023-01-13T15:59:26.514Z,7.48
2023-01-13T16:01:52.844Z,7.51
2023-01-13T16:04:19.220Z,7.53
2023-01-13T16:06:47.266Z,7.51
2023-01-13T16:09:14.608Z,7.48
2023-01-13T16:11:41.019Z,7.36
2023-01-13T16:14:07.491Z,7.43
2023-01-13T16:16:33.941Z,7.40
2023-01-13T16:19:00.315Z,7.38
2023-01-13T16:21:26.669Z,7.37
2023-01-13T16:23:53.080Z,7.41
2023-01-13T16:26:24.842Z,7.46
2023-01-13T16:28:53.368Z,7.51
2023-01-13T16:31:26.593Z,7.54
2023-01-13T16:33:53.548Z,7.54
2023-01-13T16:36:21.392Z,7.55
2023-01-13T16:38:49.057Z,7.53
2023-01-13T16:41:15.576Z,7.52
2023-01-13T16:43:42.107Z,7.49
2023-01-13T16:46:19.027Z,7.54
2023-01-13T16:48:46.099Z,7.56
2023-01-13T16:51:12.484Z,7.54
2023-01-13T16:53:39.035Z,7.52
2023-01-13T16:56:14.800Z,7.51
2023-01-13T16:58:41.201Z,7.51
2023-01-13T17:01:18.526Z,7.52
2023-01-13T17:03:48.891Z,7.56
2023-01-13T17:06:17.277Z,7.59
2023-01-13T17:08:43.584Z,7.61
2023-01-13T17:11:10.136Z,7.59
2023-01-13T17:13:36.543Z,7.63
2023-01-13T17:16:02.872Z,7.61
2023-01-13T17:18:32.097Z,7.67
2023-01-13T17:20:59.852Z,7.68
2023-01-13T17:23:27.371Z,7.69
2023-01-13T17:25:54.618Z,7.73
2023-01-13T17:28:21.084Z,7.75
2023-01-13T17:30:47.772Z,7.75
2023-01-13T17:33:14.133Z,7.70
2023-01-13T17:35:40.578Z,7.72
2023-01-13T17:38:06.894Z,7.74
2023-01-13T17:40:33.217Z,7.73
2023-01-13T17:42:59.533Z,7.78
2023-01-13T17:45:25.942Z,7.78
2023-01-13T17:47:57.714Z,7.79
2023-01-13T17:50:24.594Z,7.79
2023-01-13T17:52:50.925Z,7.71
2023-01-13T17:55:17.277Z,7.70
2023-01-13T17:57:43.608Z,7.70
2023-01-13T18:00:12.093Z,7.71
2023-01-13T18:02:41.386Z,7.69
2023-01-13T18:05:08.111Z,7.65
2023-01-13T18:07:34.416Z,7.62
2023-01-13T18:10:00.730Z,7.63
2023-01-13T18:12:27.054Z,7.61
2023-01-13T18:14:53.390Z,7.60
2023-01-13T18:17:19.783Z,7.57
2023-01-13T18:20:04.535Z,7.65
2023-01-13T18:22:49.373Z,7.65
2023-01-13T18:25:34.060Z,7.70
2023-01-13T18:28:03.683Z,7.73
2023-01-13T18:30:30.327Z,7.75
2023-01-13T18:32:57.357Z,7.75
2023-01-13T18:35:23.777Z,7.77
2023-01-13T18:37:50.129Z,7.81
2023-01-13T18:40:16.767Z,7.78
2023-01-13T18:42:52.003Z,7.88
2023-01-13T18:45:20.718Z,7.87
2023-01-13T18:47:47.071Z,7.86
2023-01-13T18:50:13.803Z,7.83
2023-01-13T18:52:41.225Z,7.83
2023-01-13T18:55:08.131Z,7.82
2023-01-13T18:57:38.979Z,7.84
2023-01-13T19:00:07.336Z,7.83
2023-01-13T19:02:34.473Z,7.83
2023-01-13T19:05:00.820Z,7.88
2023-01-13T19:07:29.053Z,7.94
2023-01-13T19:09:55.871Z,7.98
2023-01-13T19:12:26.168Z,7.98
2023-01-13T19:14:54.238Z,8.02
2023-01-13T19:17:22.095Z,8.00
2023-01-13T19:19:51.496Z,8.00
2023-01-13T19:22:23.272Z,7.99
2023-01-13T19:24:50.439Z,7.85
2023-01-13T19:27:18.462Z,7.88
2023-01-13T19:29:52.527Z,7.88
2023-01-13T19:32:22.475Z,7.95
2023-01-13T19:34:50.802Z,8.02
2023-01-13T19:37:17.683Z,8.05
2023-01-13T19:39:44.102Z,8.09
2023-01-13T19:42:32.210Z,8.07
2023-01-13T19:45:36.675Z,8.06
2023-01-13T19:48:04.770Z,8.02
2023-01-13T19:50:35.476Z,7.98
2023-01-13T19:53:01.814Z,7.99
2023-01-13T19:55:28.237Z,7.97
2023-01-13T19:57:54.619Z,7.93
2023-01-13T20:00:21.767Z,7.88
2023-01-13T20:02:49.927Z,7.89
2023-01-13T20:05:21.002Z,7.86
2023-01-13T20:07:48.837Z,7.80
2023-01-13T20:10:16.277Z,7.80
2023-01-13T20:12:42.755Z,7.79
2023-01-13T20:15:09.634Z,7.81
2023-01-13T20:17:36.047Z,7.80
2023-01-13T20:20:03.834Z,7.78
2023-01-13T20:22:35.203Z,7.80
2023-01-13T20:25:01.730Z,7.83
2023-01-13T20:27:28.333Z,7.85
2023-01-13T20:29:54.652Z,7.81
2023-01-13T20:32:21.022Z,7.84
2023-01-13T20:34:47.364Z,7.76
2023-01-13T20:37:13.746Z,7.72
2023-01-13T20:39:42.862Z,7.69
2023-01-13T20:42:27.844Z,7.58
2023-01-13T20:44:54.227Z,7.69
2023-01-13T20:47:20.590Z,7.64
2023-01-13T20:49:47.237Z,7.63
2023-01-13T20:52:14.486Z,7.67
2023-01-13T20:54:41.297Z,7.70
2023-01-13T20:57:10.108Z,7.71
2023-01-13T20:59:37.845Z,7.71
2023-01-13T21:02:06.445Z,7.67
2023-01-13T21:04:32.784Z,7.66
2023-01-13T21:06:59.136Z,7.63
2023-01-13T21:09:27.099Z,7.69
2023-01-13T21:12:12.530Z,7.67
2023-01-13T21:14:57.320Z,7.64
2023-01-13T21:17:42.018Z,7.64
2023-01-13T21:20:11.096Z,7.63
2023-01-13T21:22:38.808Z,7.60
2023-01-13T21:25:05.952Z,7.59
2023-01-13T21:27:32.863Z,7.64
2023-01-13T21:29:59.189Z,7.69
2023-01-13T21:32:25.550Z,7.68
2023-01-13T21:34:51.924Z,7.72
2023-01-13T21:37:18.557Z,7.67
2023-01-13T21:39:45.002Z,7.67
2023-01-13T21:42:33.700Z,7.64
2023-01-13T21:45:18.386Z,7.65
2023-01-13T21:47:50.514Z,7.63
2023-01-13T21:50:19.470Z,7.67
2023-01-13T21:52:47.824Z,7.61
2023-01-13T21:55:28.705Z,7.54
2023-01-13T21:58:21.382Z,7.53
2023-01-13T22:00:49.329Z,7.53
2023-01-13T22:03:18.126Z,7.56
2023-01-13T22:05:45.067Z,7.54
2023-01-13T22:08:12.548Z,7.53
2023-01-13T22:10:56.843Z,7.57
2023-01-13T22:13:41.780Z,7.55
2023-01-13T22:16:09.124Z,7.54
2023-01-13T22:18:35.501Z,7.50
2023-01-13T22:21:01.900Z,7.48
2023-01-13T22:23:28.470Z,7.48
2023-01-13T22:26:02.289Z,7.53
2023-01-13T22:28:33.996Z,7.56
2023-01-13T22:31:01.312Z,7.57
2023-01-13T22:33:27.736Z,7.61
2023-01-13T22:35:55.353Z,7.59
2023-01-13T22:38:21.936Z,7.56
2023-01-13T22:40:59.040Z,7.61
2023-01-13T22:43:26.477Z,7.62
2023-01-13T22:46:00.410Z,7.64
2023-01-13T22:48:27.452Z,7.73
2023-01-13T22:50:54.016Z,7.67
2023-01-13T22:53:20.943Z,7.64
2023-01-13T22:55:57.239Z,7.71
2023-01-13T22:58:24.305Z,7.74
2023-01-13T23:00:51.225Z,7.76
2023-01-13T23:03:18.417Z,7.74
2023-01-13T23:05:45.830Z,7.72
2023-01-13T23:08:12.754Z,7.74
2023-01-13T23:10:40.005Z,7.73
2023-01-13T23:13:06.861Z,7.76
2023-01-13T23:15:38.984Z,7.75
2023-01-13T23:18:05.572Z,7.74
2023-01-13T23:20:33.112Z,7.79
2023-01-13T23:22:59.491Z,7.83
2023-01-13T23:25:26.591Z,7.76
2023-01-13T23:27:53.260Z,7.67
2023-01-13T23:30:19.660Z,7.67
2023-01-13T23:32:46.089Z,7.62
2023-01-13T23:35:12.638Z,7.66
2023-01-13T23:37:38.953Z,7.66
2023-01-13T23:40:06.605Z,7.69
2023-01-13T23:42:32.964Z,7.66
2023-01-13T23:44:59.321Z,7.67
2023-01-13T23:47:25.674Z,7.67
2023-01-13T23:49:52.092Z,7.64
2023-01-13T23:52:18.452Z,7.65
2023-01-13T23:54:44.856Z,7.69
2023-01-13T23:57:11.403Z,7.64
2023-01-13T23:59:37.760Z,7.55
